Portada
METAR-TAF:

METAR-TAF

Aeroports :

Aeroport Suvarnabhumi

Bangkok-Suvarnabhumi, Tailàndia

latitud: 13-40-52N, longitud: 100-44-50E, altitud: 2 m

Observació

L'informe es va fer fa 42 minuts, a les 07:00 UTC
Vent 7 kt del Sud, variant entre Sud-Est i Sud-Oest
Temperatura 34°C
Humitat 56%
Pressió 1007 hPa
Visibilitat: 8000 m
Escasses núvols a una alçada de 2000 ft

METAR: VTBS 230700Z 18007KT 130V230 8000 FEW020 34/24 Q1007 NOSIG

Hora: 14:42 (07:42 UTC)

Pronòstic

L'informe es va fer fa 2 hores i 42 minuts, a les 05:00 UTC
Pronòstic vàlid del 23 a les 06 UTC al 24 a les 12 UTC
Vent 5 kt del Sud
Visibilitat: 9000 m
Escasses núvols a una alçada de 2000 ft
Evolucionant progressivament
l' 23 a les 22 UTC al 23 a les 24 UTC
Vent kt del Nord
Visibilitat: 4000 m
boirina
Evolucionant progressivament
l' 24 a les 01 UTC al 24 a les 03 UTC
Vent 5 kt del Sud/Sud-Oest
Visibilitat: 8000 m

TAF: VTBS 230500Z 2306/2412 19005KT 9000 FEW020 BECMG 2322/2324 00000KT 4000 BR BECMG 2401/2403 20005KT 8000 NSW

Observacions i pronòstics meteorològics de més de 4000 aeroports (METAR i TAF).

Les estacions disponibles són els punts grocs i vermells al mapa.

Posi el ratolí al punt desitjat per veure el nom de l'estació.

Feu clic per veure les observacions i els pronòstics meteorològics.

Per canviar el mapa: feu clic els botons verds amb una creu de color negre per apropar; al botó verd amb un guió per allunyar la imatge; o en les fletxes verdes per a mapes adjacents.


METAR-TAF: